createdAt,value
2019-03-24T00:11:25.770Z,46.60
2019-03-24T00:38:24.288Z,46.10
2019-03-24T00:51:31.483Z,46.00
2019-03-24T01:04:38.654Z,45.80
2019-03-24T01:17:45.862Z,45.70
2019-03-24T01:44:11.642Z,45.00
2019-03-24T01:57:18.814Z,44.90
2019-03-24T02:10:26.109Z,44.70
2019-03-24T02:36:37.380Z,44.60
2019-03-24T03:02:50.252Z,44.40
2019-03-24T03:15:57.430Z,44.30
2019-03-24T03:29:04.744Z,44.10
2019-03-24T03:42:11.985Z,44.00
2019-03-24T03:55:19.304Z,44.00
2019-03-24T04:08:43.480Z,43.90
2019-03-24T04:22:06.235Z,43.80
2019-03-24T04:35:29.058Z,43.70
2019-03-24T04:48:51.886Z,43.70
2019-03-24T05:02:14.792Z,43.60
2019-03-24T05:15:37.517Z,43.50
2019-03-24T05:29:00.306Z,43.40
2019-03-24T05:42:23.199Z,43.30
2019-03-24T05:55:45.982Z,43.30
2019-03-24T06:09:08.767Z,43.30
2019-03-24T06:22:31.642Z,43.20
2019-03-24T06:35:54.393Z,43.20
2019-03-24T06:49:17.275Z,43.20
2019-03-24T07:02:40.035Z,42.60
2019-03-24T07:16:02.904Z,44.70
2019-03-24T07:29:25.660Z,46.50
2019-03-24T07:42:48.627Z,47.60
2019-03-24T07:56:11.429Z,47.40
2019-03-24T08:09:34.152Z,48.00
2019-03-24T08:22:56.979Z,48.00
2019-03-24T08:36:19.775Z,48.50
2019-03-24T08:49:42.543Z,49.00
2019-03-24T09:03:05.525Z,49.40
2019-03-24T09:16:28.344Z,50.20
2019-03-24T09:42:52.749Z,50.10
2019-03-24T09:55:59.919Z,50.50
2019-03-24T10:09:07.106Z,50.60
2019-03-24T10:22:14.262Z,50.40
2019-03-24T10:35:21.445Z,49.70
2019-03-24T10:48:33.329Z,49.90
2019-03-24T11:01:52.456Z,50.00
2019-03-24T11:15:15.261Z,50.10
2019-03-24T11:28:38.043Z,50.30
2019-03-24T11:42:00.868Z,50.60
2019-03-24T11:55:23.847Z,51.00
2019-03-24T12:08:46.526Z,52.00
2019-03-24T12:35:11.072Z,53.10
2019-03-24T12:48:18.326Z,52.70
2019-03-24T13:01:25.561Z,52.80
2019-03-24T13:14:32.836Z,49.40
2019-03-24T13:27:40.062Z,47.00
2019-03-24T13:40:47.273Z,42.40
2019-03-24T13:54:10.887Z,41.40
2019-03-24T14:07:33.534Z,41.60
2019-03-24T14:20:56.359Z,41.20
2019-03-24T14:34:19.303Z,37.70
2019-03-24T14:47:41.975Z,37.70
2019-03-24T15:01:04.850Z,36.30
2019-03-24T15:27:29.255Z,35.20
2019-03-24T15:40:36.438Z,36.00
2019-03-24T15:53:43.671Z,35.40
2019-03-24T16:06:50.977Z,35.60
2019-03-24T16:19:58.207Z,36.50
2019-03-24T16:33:05.407Z,36.30
2019-03-24T16:46:29.038Z,36.40
2019-03-24T16:59:51.976Z,39.90
2019-03-24T17:13:14.664Z,36.60
2019-03-24T17:39:39.129Z,37.50
2019-03-24T18:05:52.021Z,39.80
2019-03-24T18:18:59.341Z,40.60
2019-03-24T18:32:06.566Z,40.90
2019-03-24T18:45:13.801Z,42.30
2019-03-24T18:58:21.099Z,42.10
2019-03-24T19:11:45.336Z,42.30
2019-03-24T19:25:08.130Z,42.50
2019-03-24T19:38:33.517Z,43.60
2019-03-24T19:51:53.801Z,44.30
2019-03-24T20:05:16.598Z,44.70
2019-03-24T20:18:39.536Z,45.20
2019-03-24T20:32:02.343Z,45.60
2019-03-24T20:58:26.942Z,46.40
2019-03-24T21:11:34.127Z,46.80
2019-03-24T21:24:41.393Z,46.80
2019-03-24T21:37:48.612Z,47.10
2019-03-24T21:50:55.952Z,47.50
2019-03-24T22:04:20.039Z,44.80
2019-03-24T22:17:42.954Z,45.30
2019-03-24T22:31:05.781Z,45.90
2019-03-24T22:44:28.464Z,46.40
2019-03-24T22:57:51.372Z,46.80
2019-03-24T23:11:14.231Z,46.70
2019-03-24T23:24:36.910Z,46.60
2019-03-24T23:37:59.715Z,47.00
2019-03-24T23:51:22.650Z,46.20
